createdAt,value
2024-05-09T04:54:59.042Z,51.86
2024-05-09T04:57:26.212Z,51.22
2024-05-09T04:59:56.024Z,51.34
2024-05-09T05:02:23.136Z,51.80
2024-05-09T05:04:50.293Z,51.90
2024-05-09T05:07:17.323Z,51.71
2024-05-09T05:09:44.308Z,52.90
2024-05-09T05:12:12.600Z,52.32
2024-05-09T05:14:40.754Z,52.14
2024-05-09T05:17:07.899Z,51.13
2024-05-09T05:19:35.158Z,51.60
2024-05-09T05:22:02.256Z,51.47
2024-05-09T05:24:29.313Z,52.09
2024-05-09T05:26:57.344Z,51.29
2024-05-09T05:29:24.429Z,50.80
2024-05-09T05:31:51.578Z,50.48
2024-05-09T05:34:18.673Z,50.84
2024-05-09T05:36:45.651Z,50.43
2024-05-09T05:39:12.628Z,50.91
2024-05-09T05:41:39.627Z,50.53
2024-05-09T05:44:06.779Z,50.69
2024-05-09T05:46:33.781Z,50.28
2024-05-09T05:49:00.838Z,50.86
2024-05-09T05:51:27.911Z,50.62
2024-05-09T05:53:54.873Z,50.44
2024-05-09T05:56:22.046Z,49.55
2024-05-09T05:58:49.091Z,50.89
2024-05-09T06:01:17.100Z,50.55
2024-05-09T06:03:44.314Z,49.83
2024-05-09T06:06:11.585Z,49.00
2024-05-09T06:08:38.636Z,49.15
2024-05-09T06:11:08.251Z,49.92
2024-05-09T06:13:35.249Z,48.59
2024-05-09T06:16:02.217Z,48.63
2024-05-09T06:18:28.978Z,48.18
2024-05-09T06:20:55.842Z,46.99
2024-05-09T06:23:22.506Z,47.97
2024-05-09T06:25:49.291Z,47.43
2024-05-09T06:28:15.902Z,46.29
2024-05-09T06:30:43.358Z,46.17
2024-05-09T06:33:11.817Z,46.48
2024-05-09T06:35:40.514Z,45.84
2024-05-09T06:38:07.392Z,46.18
2024-05-09T06:40:37.870Z,46.91
2024-05-09T06:43:06.370Z,46.53
2024-05-09T06:45:32.955Z,45.47
2024-05-09T06:47:59.885Z,45.08
2024-05-09T06:50:28.736Z,44.45
2024-05-09T06:53:02.439Z,44.79
2024-05-09T06:55:29.177Z,44.02
2024-05-09T06:57:55.794Z,42.47
2024-05-09T07:00:27.655Z,43.55
2024-05-09T07:03:05.367Z,43.10
2024-05-09T07:05:32.631Z,42.84
2024-05-09T07:07:59.283Z,42.29
2024-05-09T07:10:32.773Z,41.57
2024-05-09T07:13:01.818Z,41.78
2024-05-09T07:15:28.443Z,41.30
2024-05-09T07:17:55.713Z,40.79
2024-05-09T07:20:31.871Z,40.49
2024-05-09T07:23:01.772Z,39.35
2024-05-09T07:25:28.953Z,39.80
2024-05-09T07:27:56.001Z,38.31
2024-05-09T07:30:27.841Z,38.74
2024-05-09T07:33:00.633Z,39.17
2024-05-09T07:35:29.686Z,39.33
2024-05-09T07:37:56.980Z,38.00
2024-05-09T07:40:32.910Z,38.73
2024-05-09T07:43:03.363Z,37.35
2024-05-09T07:52:23.391Z,37.39
2024-05-09T07:53:38.539Z,36.73
2024-05-09T07:56:07.208Z,37.97
2024-05-09T07:58:34.505Z,35.94
2024-05-09T08:01:01.544Z,36.41
2024-05-09T08:03:28.850Z,36.77
2024-05-09T08:05:55.912Z,35.77
2024-05-09T08:08:22.873Z,36.92
2024-05-09T08:10:49.888Z,37.31
2024-05-09T08:13:16.969Z,36.82
2024-05-09T08:15:44.034Z,35.59
2024-05-09T08:18:11.325Z,38.33
2024-05-09T08:20:38.468Z,36.06
2024-05-09T08:23:05.460Z,36.74
2024-05-09T08:25:32.465Z,37.23
2024-05-09T08:27:59.522Z,36.48
2024-05-09T08:30:33.402Z,36.62
2024-05-09T08:33:04.085Z,34.97
2024-05-09T08:35:31.201Z,33.91
2024-05-09T08:37:58.284Z,35.47
2024-05-09T08:40:32.897Z,33.95
2024-05-09T08:43:02.607Z,35.43
2024-05-09T08:45:29.802Z,36.02
2024-05-09T08:47:57.003Z,34.30
2024-05-09T08:50:31.993Z,34.42
2024-05-09T08:53:05.198Z,33.27
2024-05-09T08:55:32.268Z,33.89
2024-05-09T08:57:59.338Z,33.83
2024-05-09T09:00:34.207Z,33.29
2024-05-09T09:03:04.286Z,34.43
2024-05-09T09:05:32.003Z,34.66
2024-05-09T09:07:59.202Z,35.03
2024-05-09T09:10:31.898Z,36.75
2024-05-09T09:13:00.042Z,36.15
2024-05-09T09:15:27.119Z,35.87
2024-05-09T09:17:54.238Z,36.51
2024-05-09T09:20:26.435Z,36.68
2024-05-09T09:23:00.597Z,36.66
2024-05-09T09:25:27.195Z,39.25
2024-05-09T09:27:53.814Z,41.96
2024-05-09T09:30:31.783Z,41.50
2024-05-09T09:33:03.607Z,41.71
2024-05-09T09:35:30.290Z,40.79
2024-05-09T09:37:56.888Z,40.03
2024-05-09T09:40:31.004Z,39.20
2024-05-09T09:42:59.180Z,37.41
2024-05-09T09:45:25.753Z,39.74
2024-05-09T09:47:52.459Z,40.06
2024-05-09T09:50:27.066Z,41.15
2024-05-09T09:52:58.292Z,40.20
2024-05-09T09:55:25.029Z,41.69
2024-05-09T09:57:51.792Z,39.70
2024-05-09T10:00:24.472Z,38.82
2024-05-09T10:02:57.091Z,39.23
2024-05-09T10:05:24.053Z,39.82
2024-05-09T10:07:50.855Z,39.60
2024-05-09T10:10:23.090Z,38.65
2024-05-09T10:12:56.585Z,35.03
2024-05-09T10:15:23.254Z,35.18
2024-05-09T10:17:49.952Z,34.36
2024-05-09T10:20:21.867Z,32.74
2024-05-09T10:22:51.926Z,34.43
2024-05-09T10:25:18.943Z,37.66
2024-05-09T10:27:45.941Z,35.74
2024-05-09T10:30:17.896Z,37.47
2024-05-09T10:32:52.566Z,37.77
2024-05-09T10:35:19.675Z,35.46
2024-05-09T10:37:46.656Z,35.27
2024-05-09T10:40:19.920Z,33.63
2024-05-09T10:42:50.510Z,30.93
2024-05-09T10:45:17.494Z,31.38
2024-05-09T10:47:44.564Z,31.78
2024-05-09T10:50:18.563Z,30.02
2024-05-09T10:52:52.444Z,31.68
2024-05-09T10:55:19.561Z,30.88
2024-05-09T10:57:46.749Z,31.38
2024-05-09T11:00:23.171Z,31.49
2024-05-09T11:02:57.057Z,32.90
2024-05-09T11:05:24.134Z,33.50
2024-05-09T11:07:51.174Z,33.47
2024-05-09T11:10:25.051Z,35.05
2024-05-09T11:12:58.479Z,33.33
2024-05-09T11:15:25.455Z,33.86
2024-05-09T11:17:52.560Z,31.82
2024-05-09T11:20:26.692Z,30.83
2024-05-09T11:22:56.642Z,31.60
2024-05-09T11:25:23.621Z,31.67
2024-05-09T11:27:50.624Z,31.98
2024-05-09T11:30:24.258Z,30.56
2024-05-09T11:32:57.058Z,28.68
2024-05-09T11:35:24.092Z,29.78
2024-05-09T11:37:51.044Z,29.59
2024-05-09T11:40:25.218Z,30.20
2024-05-09T11:42:55.487Z,30.67
2024-05-09T11:45:22.491Z,30.93
2024-05-09T11:47:49.701Z,28.66
2024-05-09T11:50:26.710Z,27.18
2024-05-09T11:52:57.132Z,27.71
2024-05-09T11:55:27.640Z,30.07
2024-05-09T11:57:55.703Z,30.43
2024-05-09T12:00:32.988Z,30.81
2024-05-09T12:03:03.530Z,30.73
2024-05-09T12:05:30.591Z,31.55
2024-05-09T12:07:57.653Z,30.83
2024-05-09T12:10:32.552Z,30.58
2024-05-09T12:13:02.362Z,27.75
2024-05-09T12:15:29.663Z,26.85
2024-05-09T12:17:59.068Z,27.97
2024-05-09T12:20:35.672Z,26.69
2024-05-09T12:23:05.638Z,28.57
2024-05-09T12:25:32.650Z,28.93
2024-05-09T12:27:59.833Z,28.43
2024-05-09T12:30:35.476Z,27.89
2024-05-09T12:33:05.964Z,27.65
2024-05-09T12:35:33.255Z,27.84
2024-05-09T12:38:00.322Z,28.50
2024-05-09T12:40:35.449Z,26.86
2024-05-09T12:43:05.260Z,27.36
2024-05-09T12:45:32.563Z,27.21
2024-05-09T12:47:59.736Z,28.01
2024-05-09T12:50:32.436Z,27.98
2024-05-09T12:53:01.679Z,27.41
2024-05-09T12:55:33.846Z,28.21
2024-05-09T12:58:07.960Z,28.73
2024-05-09T13:00:35.280Z,28.00
2024-05-09T13:03:02.405Z,28.52
2024-05-09T13:05:29.963Z,29.39
2024-05-09T13:07:57.390Z,29.30
2024-05-09T13:10:31.269Z,29.40
2024-05-09T13:13:00.571Z,29.71
2024-05-09T13:15:28.186Z,30.04
2024-05-09T13:17:58.086Z,30.51
2024-05-09T13:20:32.796Z,29.68
2024-05-09T13:23:02.206Z,29.53
2024-05-09T13:25:29.321Z,29.60
2024-05-09T13:27:56.435Z,30.23
2024-05-09T13:30:29.817Z,29.64
2024-05-09T13:33:05.910Z,29.97
2024-05-09T13:35:33.031Z,31.63
2024-05-09T13:37:59.614Z,30.88
2024-05-09T13:40:33.472Z,31.55
2024-05-09T13:43:02.518Z,31.20
2024-05-09T13:45:29.343Z,31.38
2024-05-09T13:47:56.143Z,30.90
2024-05-09T13:50:31.158Z,31.10
2024-05-09T13:53:01.786Z,31.80
2024-05-09T13:55:28.549Z,32.26
2024-05-09T13:57:55.182Z,32.25
2024-05-09T14:00:37.232Z,33.40
2024-05-09T14:03:08.483Z,33.03
2024-05-09T14:05:35.317Z,32.76
2024-05-09T14:08:02.047Z,32.57
2024-05-09T14:10:31.133Z,32.37
2024-05-09T14:12:58.795Z,32.48
2024-05-09T14:15:25.427Z,33.58
2024-05-09T14:17:52.077Z,33.61
2024-05-09T14:20:28.325Z,34.14
2024-05-09T14:22:58.070Z,33.24
2024-05-09T14:25:24.786Z,33.59
2024-05-09T14:27:51.470Z,34.29
2024-05-09T14:30:25.896Z,33.90
2024-05-09T14:33:00.431Z,34.46
2024-05-09T14:35:27.460Z,34.41
2024-05-09T14:37:54.183Z,33.47
2024-05-09T14:40:34.924Z,34.16
2024-05-09T14:43:06.634Z,33.30
2024-05-09T14:45:33.303Z,33.82
2024-05-09T14:48:00.065Z,34.07
2024-05-09T14:50:34.722Z,33.22
2024-05-09T14:53:04.678Z,34.54
2024-05-09T14:55:31.335Z,34.31
2024-05-09T14:57:58.086Z,34.35
2024-05-09T15:00:29.026Z,34.37
2024-05-09T15:02:59.972Z,33.80
2024-05-09T15:05:26.641Z,33.28
2024-05-09T15:07:53.264Z,33.35
2024-05-09T15:10:27.029Z,33.24
2024-05-09T15:13:00.580Z,33.99
2024-05-09T15:15:27.239Z,33.58
2024-05-09T15:17:53.903Z,33.43
2024-05-09T15:20:31.067Z,33.52
2024-05-09T15:23:01.960Z,33.87
2024-05-09T15:25:28.720Z,34.19
2024-05-09T15:27:55.520Z,33.75
2024-05-09T15:30:30.044Z,33.74
2024-05-09T15:32:59.252Z,34.09
2024-05-09T15:35:25.871Z,34.37
2024-05-09T15:37:52.872Z,34.32
2024-05-09T15:40:26.827Z,35.00
2024-05-09T15:43:02.549Z,34.42
2024-05-09T15:45:29.510Z,33.77
2024-05-09T15:50:32.323Z,34.24
2024-05-09T15:53:04.223Z,34.75
2024-05-09T15:55:30.789Z,34.88
2024-05-09T15:57:57.584Z,34.40
2024-05-09T16:00:29.386Z,34.32
2024-05-09T16:03:03.477Z,34.57
2024-05-09T16:05:30.250Z,34.60
2024-05-09T16:07:56.891Z,34.72
2024-05-09T16:10:30.053Z,35.01
2024-05-09T16:12:59.431Z,35.22
2024-05-09T16:15:26.098Z,35.35
2024-05-09T16:17:52.732Z,35.61
2024-05-09T16:20:29.918Z,35.00
2024-05-09T16:23:04.945Z,36.28
2024-05-09T16:25:31.567Z,35.56
2024-05-09T16:27:58.206Z,35.58
2024-05-09T16:30:31.730Z,35.43
2024-05-09T16:33:01.909Z,35.11
2024-05-09T16:35:28.731Z,36.33
2024-05-09T16:37:55.712Z,35.83
2024-05-09T16:40:30.261Z,35.28
2024-05-09T16:43:04.703Z,35.08
2024-05-09T16:45:32.058Z,34.93
2024-05-09T16:47:59.352Z,34.87
2024-05-09T16:50:32.022Z,35.37
2024-05-09T16:53:02.506Z,35.12
2024-05-09T16:55:29.334Z,35.84
2024-05-09T16:57:56.282Z,35.09
2024-05-09T17:00:34.841Z,35.17
2024-05-09T17:03:08.977Z,35.14
2024-05-09T17:05:37.803Z,35.58
2024-05-09T17:08:05.930Z,35.54
2024-05-09T17:10:34.826Z,35.97
2024-05-09T17:13:04.562Z,35.71
2024-05-09T17:15:39.763Z,36.11
2024-05-09T17:18:08.013Z,36.04
2024-05-09T17:20:37.482Z,34.73
2024-05-09T17:23:05.779Z,35.00
2024-05-09T17:25:39.258Z,35.30
2024-05-09T17:28:07.170Z,34.65
2024-05-09T17:30:49.177Z,35.18
2024-05-09T17:33:16.051Z,36.16
2024-05-09T17:35:42.842Z,35.99
2024-05-09T17:38:09.712Z,35.69
2024-05-09T17:40:38.255Z,36.64
2024-05-09T17:43:52.697Z,36.02
2024-05-09T17:48:41.903Z,36.09
2024-05-09T17:51:09.899Z,36.70
2024-05-09T17:53:37.124Z,36.52
2024-05-09T17:56:04.255Z,36.14
2024-05-09T17:58:35.870Z,36.45
2024-05-09T18:01:03.293Z,36.11
2024-05-09T18:03:35.224Z,36.05
2024-05-09T18:06:02.777Z,36.34
2024-05-09T18:08:29.551Z,35.74
2024-05-09T18:13:20.107Z,36.00
2024-05-09T18:13:54.246Z,36.01
2024-05-09T18:16:21.173Z,36.37
2024-05-09T18:19:11.198Z,37.04
2024-05-09T18:21:57.931Z,36.70
2024-05-09T18:24:22.653Z,36.83
2024-05-09T18:26:49.411Z,37.53
2024-05-09T18:29:38.453Z,37.74
2024-05-09T18:32:28.631Z,37.72
2024-05-09T18:34:53.608Z,37.01
2024-05-09T18:37:21.947Z,37.16
2024-05-09T18:39:51.726Z,37.49
2024-05-09T18:42:18.449Z,37.64
2024-05-09T18:45:07.754Z,37.97
2024-05-09T18:47:36.875Z,37.68
2024-05-09T18:50:20.397Z,38.12
2024-05-09T18:53:13.836Z,38.29
2024-05-09T18:55:38.847Z,38.55
2024-05-09T18:58:07.364Z,38.34
2024-05-09T19:00:37.551Z,38.25
2024-05-09T19:03:29.825Z,39.20
2024-05-09T19:05:54.225Z,38.78
2024-05-09T19:08:21.459Z,38.96
2024-05-09T19:10:52.929Z,39.35
2024-05-09T19:13:21.509Z,39.83
2024-05-09T19:15:48.746Z,39.67
2024-05-09T19:18:16.151Z,39.27
2024-05-09T19:20:43.062Z,39.44
2024-05-09T19:23:14.216Z,39.97
2024-05-09T19:25:41.017Z,40.71
2024-05-09T19:28:09.342Z,40.25
2024-05-09T19:30:41.206Z,40.42
2024-05-09T19:33:12.257Z,40.67
2024-05-09T19:38:03.753Z,41.05
2024-05-09T19:38:27.380Z,41.59
2024-05-09T19:43:17.411Z,40.66
2024-05-09T19:43:43.770Z,41.41
2024-05-09T19:46:10.559Z,40.88
2024-05-09T19:48:37.374Z,41.50
2024-05-09T19:51:04.459Z,41.32
2024-05-09T19:53:32.293Z,41.77
2024-05-09T19:56:00.331Z,41.60
2024-05-09T19:58:28.490Z,41.45
2024-05-09T20:00:55.866Z,42.01
2024-05-09T20:03:22.694Z,41.26
2024-05-09T20:05:50.924Z,42.21
2024-05-09T20:08:18.979Z,42.14
2024-05-09T20:10:45.635Z,41.93
2024-05-09T20:13:12.446Z,43.15
2024-05-09T20:16:01.799Z,42.65
2024-05-09T20:18:26.863Z,42.75
2024-05-09T20:20:54.349Z,42.31
2024-05-09T20:23:23.672Z,42.75
2024-05-09T20:25:51.496Z,43.32
2024-05-09T20:28:19.688Z,42.66
2024-05-09T20:30:47.818Z,43.37
2024-05-09T20:33:16.008Z,42.86
2024-05-09T20:35:42.815Z,43.29
2024-05-09T20:38:09.613Z,43.40
2024-05-09T20:40:38.852Z,42.60
2024-05-09T20:43:07.045Z,43.30
2024-05-09T20:45:34.535Z,42.75
2024-05-09T20:48:01.960Z,43.10
2024-05-09T20:50:37.053Z,43.06
2024-05-09T20:53:07.393Z,42.48
2024-05-09T20:55:35.614Z,42.74
